Chur/Vaduz, Switzerland
Current Conditions -  °F | °C
As of 5:20 PM on Friday 28 Nov 2014 (Local Time) from LSZS Reporting Station
Light Rain Light Rain  
Wind Chill: 35°   Ceiling: 4500
Heat Index: 39°   Visibility: 4mi
Dew Point: 39°   Wind: 6mph
Humidity: 100%   Direction: 150°SSE
Pressure: 29.91"   Gusts: NA
Location:  46.85°N, 9.53°E
Report Text: LSZS 281620Z 15005KT 6000 -RA FEW008 SCT028 BKN045 04/04 Q1013 R03/29////
Loading
Personal Weather Stations






























Interactive Weather Map New forecast layout! Learn more

10-Day Weather Forecast

Advertisements
Track Severe Weather on mobile